createdAt,value
2022-08-07T00:02:36.859Z,10.20
2022-08-07T00:04:57.112Z,10.83
2022-08-07T00:07:23.630Z,10.13
2022-08-07T00:10:11.105Z,9.90
2022-08-07T00:12:57.601Z,9.87
2022-08-07T00:15:38.028Z,11.03
2022-08-07T00:18:19.658Z,10.97
2022-08-07T00:20:47.676Z,10.27
2022-08-07T00:23:14.873Z,11.60
2022-08-07T00:25:43.534Z,11.73
2022-08-07T00:28:12.539Z,11.00
2022-08-07T00:30:42.135Z,11.13
2022-08-07T00:33:08.618Z,11.37
2022-08-07T00:35:36.580Z,10.20
2022-08-07T00:38:03.815Z,10.97
2022-08-07T00:40:36.605Z,11.10
2022-08-07T00:43:09.725Z,11.07
2022-08-07T00:45:37.055Z,10.27
2022-08-07T00:48:07.838Z,11.03
2022-08-07T00:50:46.587Z,10.47
2022-08-07T00:53:18.607Z,10.13
2022-08-07T00:56:02.272Z,10.43
2022-08-07T00:58:41.054Z,10.87
2022-08-07T01:01:10.568Z,11.40
2022-08-07T01:03:55.332Z,11.27
2022-08-07T01:06:23.680Z,11.27
2022-08-07T01:08:53.398Z,10.90
2022-08-07T01:12:09.810Z,10.40
2022-08-07T01:14:09.214Z,11.13
2022-08-07T01:16:36.719Z,10.93
2022-08-07T01:19:04.948Z,10.57
2022-08-07T01:21:46.593Z,9.57
2022-08-07T01:24:14.557Z,10.43
2022-08-07T01:26:52.013Z,9.83
2022-08-07T01:29:20.260Z,10.73
2022-08-07T01:31:49.321Z,11.50
2022-08-07T01:34:18.652Z,11.63
2022-08-07T01:36:52.671Z,11.57
2022-08-07T01:39:41.444Z,11.30
2022-08-07T01:42:38.292Z,11.73
2022-08-07T01:45:01.224Z,11.23
2022-08-07T01:48:20.999Z,11.53
2022-08-07T01:50:14.411Z,12.13
2022-08-07T01:52:49.698Z,11.83
2022-08-07T01:55:42.587Z,11.23
2022-08-07T01:58:29.642Z,12.23
2022-08-07T02:01:09.985Z,11.57
2022-08-07T02:03:59.946Z,12.03
2022-08-07T02:06:32.214Z,12.60
2022-08-07T02:09:03.799Z,13.37
2022-08-07T02:12:03.482Z,13.20
2022-08-07T02:14:40.321Z,11.60
2022-08-07T02:17:07.358Z,12.60
2022-08-07T02:20:07.751Z,13.50
2022-08-07T02:22:25.716Z,12.67
2022-08-07T02:24:54.714Z,12.63
2022-08-07T02:27:23.458Z,12.13
2022-08-07T02:29:54.598Z,12.23
2022-08-07T02:32:23.155Z,13.63
2022-08-07T02:34:51.483Z,12.37
2022-08-07T02:37:19.014Z,12.90
2022-08-07T02:40:02.193Z,12.67
2022-08-07T02:42:34.231Z,12.97
2022-08-07T02:45:07.289Z,12.83
2022-08-07T02:47:49.790Z,12.20
2022-08-07T02:50:16.575Z,13.40
2022-08-07T02:52:53.129Z,13.00
2022-08-07T02:55:28.608Z,11.87
2022-08-07T02:58:12.217Z,12.00
2022-08-07T03:00:40.804Z,12.17
2022-08-07T03:03:20.972Z,11.63
2022-08-07T03:05:51.261Z,12.60
2022-08-07T03:08:26.985Z,12.27
2022-08-07T03:10:57.068Z,11.60
2022-08-07T03:13:23.790Z,12.50
2022-08-07T03:15:58.216Z,11.50
2022-08-07T03:18:34.301Z,12.43
2022-08-07T03:21:04.506Z,11.80
2022-08-07T03:23:33.904Z,12.13
2022-08-07T03:26:21.242Z,11.43
2022-08-07T03:28:50.290Z,11.20
2022-08-07T03:31:24.569Z,12.43
2022-08-07T03:34:18.288Z,10.97
2022-08-07T03:36:48.713Z,11.13
2022-08-07T03:39:16.058Z,11.60
2022-08-07T03:41:50.691Z,10.67
2022-08-07T03:44:21.805Z,10.93
2022-08-07T03:47:13.708Z,12.73
2022-08-07T03:49:42.482Z,12.70
2022-08-07T03:52:22.622Z,11.93
2022-08-07T03:54:55.013Z,11.37
2022-08-07T03:58:35.019Z,13.40
2022-08-07T04:00:12.732Z,13.37
2022-08-07T04:02:43.088Z,13.40
2022-08-07T04:05:14.075Z,12.57
2022-08-07T04:07:46.208Z,12.63
2022-08-07T04:10:15.526Z,12.70
2022-08-07T04:12:46.022Z,12.93
2022-08-07T04:15:13.829Z,12.97
2022-08-07T04:18:57.491Z,12.90
2022-08-07T04:20:29.538Z,12.63
2022-08-07T04:23:01.800Z,13.37
2022-08-07T04:25:29.173Z,13.47
2022-08-07T04:28:00.657Z,14.87
2022-08-07T04:30:44.284Z,11.90
2022-08-07T04:33:15.724Z,13.10
2022-08-07T04:35:50.545Z,12.60
2022-08-07T04:38:17.863Z,13.27
2022-08-07T04:40:52.503Z,14.17
2022-08-07T04:44:12.689Z,13.40
2022-08-07T04:46:34.523Z,13.33
2022-08-07T04:49:24.789Z,12.40
2022-08-07T04:52:19.853Z,13.47
2022-08-07T04:55:02.109Z,13.43
2022-08-07T04:58:13.817Z,13.40
2022-08-07T05:00:59.496Z,12.63
2022-08-07T05:04:07.764Z,13.23
2022-08-07T05:06:43.600Z,12.00
2022-08-07T05:09:45.346Z,11.23
2022-08-07T05:12:27.334Z,12.77
2022-08-07T05:15:21.622Z,13.03
2022-08-07T05:17:57.732Z,12.30
2022-08-07T05:20:27.491Z,11.93
2022-08-07T05:22:57.180Z,13.33
2022-08-07T05:25:25.584Z,12.40
2022-08-07T05:28:20.397Z,14.17
2022-08-07T05:30:49.881Z,13.20
2022-08-07T05:33:20.806Z,13.30
2022-08-07T05:35:49.730Z,13.43
2022-08-07T05:39:01.046Z,13.33
2022-08-07T05:41:05.521Z,12.57
2022-08-07T05:43:49.990Z,12.80
2022-08-07T05:46:27.037Z,12.53
2022-08-07T05:48:58.303Z,12.77
2022-08-07T05:51:25.776Z,12.67
2022-08-07T05:54:09.726Z,12.07
2022-08-07T05:56:47.025Z,12.07
2022-08-07T05:59:19.429Z,11.30
2022-08-07T06:01:48.551Z,10.43
2022-08-07T06:04:17.542Z,11.67
2022-08-07T06:06:46.380Z,11.63
2022-08-07T06:09:15.492Z,10.67
2022-08-07T06:11:42.473Z,10.40
2022-08-07T06:14:12.113Z,10.63
2022-08-07T06:16:50.408Z,10.63
2022-08-07T06:19:48.031Z,10.50
2022-08-07T06:22:15.281Z,10.60
2022-08-07T06:24:57.750Z,10.20
2022-08-07T06:27:44.051Z,10.53
2022-08-07T06:30:24.220Z,9.67
2022-08-07T06:32:59.074Z,9.50
2022-08-07T06:35:25.530Z,9.20
2022-08-07T06:38:08.311Z,9.77
2022-08-07T06:40:50.090Z,10.23
2022-08-07T06:43:21.379Z,10.30
2022-08-07T06:45:49.376Z,9.00
2022-08-07T06:48:15.969Z,9.10
2022-08-07T06:50:51.725Z,8.87
2022-08-07T06:55:29.757Z,9.17
2022-08-07T06:56:15.261Z,8.43
2022-08-07T07:00:13.121Z,8.43
2022-08-07T07:01:33.263Z,8.30
2022-08-07T07:04:28.514Z,8.47
2022-08-07T07:07:01.348Z,7.63
2022-08-07T07:09:31.123Z,7.73
2022-08-07T07:12:16.676Z,7.40
2022-08-07T07:15:03.730Z,7.27
2022-08-07T07:17:38.831Z,7.67
2022-08-07T07:20:28.009Z,6.97
2022-08-07T07:24:06.250Z,7.20
2022-08-07T07:26:35.731Z,8.07
2022-08-07T07:29:22.755Z,7.50
2022-08-07T07:31:44.220Z,7.30
2022-08-07T07:34:30.609Z,6.70
2022-08-07T07:37:05.605Z,7.20
2022-08-07T07:39:54.278Z,7.70
2022-08-07T07:42:32.570Z,6.53
2022-08-07T07:45:01.784Z,6.90
2022-08-07T07:47:29.259Z,6.93
2022-08-07T07:50:36.040Z,6.93
2022-08-07T07:52:46.992Z,6.97
2022-08-07T07:55:14.553Z,6.63
2022-08-07T07:57:52.477Z,6.23
2022-08-07T08:00:28.946Z,7.10
2022-08-07T08:03:01.270Z,6.50
2022-08-07T08:05:43.203Z,6.20
2022-08-07T08:08:34.720Z,5.77
2022-08-07T08:11:04.692Z,6.60
2022-08-07T08:13:33.188Z,7.43
2022-08-07T08:16:03.713Z,6.53
2022-08-07T08:18:30.981Z,6.60
2022-08-07T08:21:01.195Z,6.50
2022-08-07T08:23:49.363Z,6.20
2022-08-07T08:26:35.821Z,6.50
2022-08-07T08:29:03.596Z,6.90
2022-08-07T08:31:59.328Z,6.70
2022-08-07T08:34:26.959Z,6.43
2022-08-07T08:36:57.657Z,6.23
2022-08-07T08:39:25.582Z,6.47
2022-08-07T08:42:29.989Z,6.43
2022-08-07T08:45:13.490Z,6.33
2022-08-07T08:48:04.853Z,6.27
2022-08-07T08:50:39.536Z,6.33
2022-08-07T08:53:15.209Z,6.47
2022-08-07T08:55:53.478Z,6.17
2022-08-07T08:58:32.750Z,6.20
2022-08-07T09:01:15.774Z,6.10
2022-08-07T09:03:56.699Z,5.33
2022-08-07T09:07:02.251Z,6.10
2022-08-07T09:09:41.105Z,5.77
2022-08-07T09:12:53.034Z,6.07
2022-08-07T09:16:22.758Z,6.10
2022-08-07T09:18:58.455Z,6.03
2022-08-07T09:21:34.470Z,6.60
2022-08-07T09:24:54.069Z,6.90
2022-08-07T09:27:24.828Z,5.77
2022-08-07T09:30:06.430Z,5.13
2022-08-07T09:32:46.671Z,5.77
2022-08-07T09:36:04.243Z,5.20
2022-08-07T09:38:17.925Z,5.60
2022-08-07T09:41:06.243Z,5.40
2022-08-07T09:44:10.237Z,4.77
2022-08-07T09:47:50.260Z,4.90
2022-08-07T09:50:01.530Z,5.33
2022-08-07T09:52:41.068Z,5.07
2022-08-07T09:55:17.039Z,5.63
2022-08-07T09:58:32.426Z,5.32
2022-08-07T10:01:08.449Z,4.97
2022-08-07T10:04:28.261Z,5.70
2022-08-07T10:07:24.487Z,4.15
2022-08-07T10:10:23.063Z,4.57
2022-08-07T10:13:29.858Z,4.88
2022-08-07T10:16:10.184Z,4.22
2022-08-07T10:18:49.329Z,4.18
2022-08-07T10:22:12.388Z,4.40
2022-08-07T10:25:13.553Z,4.93
2022-08-07T10:28:08.013Z,4.35
2022-08-07T10:30:54.068Z,4.82
2022-08-07T10:34:06.652Z,4.32
2022-08-07T10:36:48.558Z,4.75
2022-08-07T10:39:25.526Z,4.07
2022-08-07T10:42:31.360Z,4.78
2022-08-07T10:45:45.248Z,4.23
2022-08-07T10:48:12.418Z,4.72
2022-08-07T10:50:50.238Z,4.40
2022-08-07T10:53:27.972Z,4.20
2022-08-07T10:56:30.925Z,3.90
2022-08-07T10:59:21.423Z,3.70
2022-08-07T11:02:11.856Z,3.80
2022-08-07T11:04:57.602Z,4.77
2022-08-07T11:07:59.535Z,4.05
2022-08-07T11:10:39.995Z,4.27
2022-08-07T11:14:46.026Z,3.77
2022-08-07T11:16:36.952Z,3.83
2022-08-07T11:19:10.229Z,2.93
2022-08-07T11:21:40.837Z,3.83
2022-08-07T11:24:20.605Z,3.77
2022-08-07T11:26:54.205Z,4.40
2022-08-07T11:29:41.926Z,3.80
2022-08-07T11:32:25.992Z,3.65
2022-08-07T11:34:58.631Z,3.70
2022-08-07T11:38:10.221Z,3.60
2022-08-07T11:40:49.922Z,4.05
2022-08-07T11:43:29.434Z,3.83
2022-08-07T11:46:36.613Z,4.10
2022-08-07T11:50:18.558Z,3.50
2022-08-07T11:52:42.795Z,3.33
2022-08-07T11:55:13.078Z,3.42
2022-08-07T11:58:33.121Z,3.55
2022-08-07T12:01:22.049Z,3.60
2022-08-07T12:04:01.098Z,4.15
2022-08-07T12:06:56.246Z,4.32
2022-08-07T12:09:46.114Z,4.13
2022-08-07T12:12:18.985Z,4.22
2022-08-07T12:14:56.117Z,4.00
2022-08-07T12:17:33.462Z,4.15
2022-08-07T12:20:10.518Z,4.70
2022-08-07T12:23:21.451Z,3.50
2022-08-07T12:26:23.461Z,4.07
2022-08-07T12:29:06.225Z,4.18
2022-08-07T12:32:02.436Z,3.97
2022-08-07T12:34:28.252Z,4.40
2022-08-07T12:36:56.089Z,4.30
2022-08-07T12:39:43.707Z,4.00
2022-08-07T12:42:13.013Z,3.83
2022-08-07T12:44:42.921Z,4.20
2022-08-07T12:47:30.792Z,3.92
2022-08-07T12:50:04.919Z,3.75
2022-08-07T12:52:36.828Z,3.58
2022-08-07T12:55:21.628Z,3.75
2022-08-07T12:58:08.033Z,2.80
2022-08-07T13:01:00.837Z,3.47
2022-08-07T13:04:31.667Z,3.28
2022-08-07T13:08:14.316Z,3.38
2022-08-07T13:10:51.799Z,3.50
2022-08-07T13:13:48.579Z,3.40
2022-08-07T13:16:37.612Z,3.85
2022-08-07T13:19:35.012Z,3.35
2022-08-07T13:22:31.149Z,3.47
2022-08-07T13:25:09.563Z,3.20
2022-08-07T13:28:11.705Z,3.95
2022-08-07T13:30:48.690Z,4.55
2022-08-07T13:34:29.916Z,3.70
2022-08-07T13:36:22.139Z,4.13
2022-08-07T13:39:49.361Z,3.83
2022-08-07T13:42:06.305Z,3.40
2022-08-07T13:44:34.561Z,3.60
2022-08-07T13:47:09.472Z,3.70
2022-08-07T13:50:32.542Z,3.72
2022-08-07T13:52:36.284Z,3.53
2022-08-07T13:55:19.375Z,3.80
2022-08-07T13:58:27.589Z,4.15
2022-08-07T14:00:59.395Z,3.08
2022-08-07T14:04:06.628Z,2.90
2022-08-07T14:06:32.189Z,3.15
2022-08-07T14:08:59.386Z,3.15
2022-08-07T14:11:53.748Z,3.20
2022-08-07T14:14:20.676Z,3.85
2022-08-07T14:16:50.078Z,3.65
2022-08-07T14:20:40.630Z,3.15
2022-08-07T14:22:34.545Z,3.75
2022-08-07T14:25:08.234Z,3.22
2022-08-07T14:28:10.309Z,3.45
2022-08-07T14:33:15.777Z,3.40
2022-08-07T14:35:55.749Z,3.30
2022-08-07T14:38:30.667Z,3.90
2022-08-07T14:41:14.733Z,3.97
2022-08-07T14:43:55.257Z,3.45
2022-08-07T14:46:31.278Z,3.70
2022-08-07T14:48:59.248Z,3.75
2022-08-07T14:52:04.591Z,3.47
2022-08-07T14:57:20.481Z,3.53
2022-08-07T15:02:39.253Z,3.88
2022-08-07T15:05:20.269Z,3.58
2022-08-07T15:07:51.006Z,3.22
2022-08-07T15:10:26.838Z,3.17
2022-08-07T15:12:58.683Z,3.50
2022-08-07T15:15:40.709Z,3.45
2022-08-07T15:18:33.905Z,3.65
2022-08-07T15:25:14.408Z,4.00
2022-08-07T15:26:44.702Z,3.45
2022-08-07T15:30:06.636Z,3.30
2022-08-07T15:32:05.001Z,3.97
2022-08-07T15:34:50.686Z,3.60
2022-08-07T15:38:04.566Z,4.25
2022-08-07T15:43:33.537Z,3.88
2022-08-07T15:46:04.510Z,3.60
2022-08-07T15:48:55.236Z,3.70
2022-08-07T15:54:21.486Z,3.30
2022-08-07T15:56:49.507Z,3.42
2022-08-07T15:59:17.319Z,3.70
2022-08-07T16:02:01.738Z,3.35
2022-08-07T16:04:31.478Z,3.10
2022-08-07T16:07:04.767Z,3.33
2022-08-07T16:09:51.968Z,3.92
2022-08-07T16:13:01.184Z,4.15
2022-08-07T16:15:58.059Z,3.35
2022-08-07T16:18:51.566Z,3.03
2022-08-07T16:22:04.079Z,3.72
2022-08-07T16:24:52.328Z,3.60
2022-08-07T16:27:25.369Z,3.90
2022-08-07T16:30:30.198Z,3.92
2022-08-07T16:32:59.148Z,3.80
2022-08-07T16:36:03.686Z,4.00
2022-08-07T16:39:01.100Z,3.93
2022-08-07T16:41:58.877Z,4.20
2022-08-07T16:45:14.968Z,3.75
2022-08-07T16:47:57.177Z,3.60
2022-08-07T16:51:20.589Z,3.60
2022-08-07T16:54:08.865Z,3.70
2022-08-07T16:56:54.763Z,3.38
2022-08-07T16:59:46.585Z,3.28
2022-08-07T17:02:55.514Z,3.63
2022-08-07T17:06:19.134Z,3.65
2022-08-07T17:09:09.837Z,2.97
2022-08-07T17:12:01.539Z,4.13
2022-08-07T17:14:43.900Z,3.42
2022-08-07T17:17:23.539Z,3.75
2022-08-07T17:20:02.735Z,3.95
2022-08-07T17:22:48.477Z,3.58
2022-08-07T17:25:19.255Z,3.77
2022-08-07T17:27:53.318Z,3.53
2022-08-07T17:30:26.701Z,3.67
2022-08-07T17:34:09.614Z,3.40
2022-08-07T17:36:03.009Z,3.77
2022-08-07T17:38:36.833Z,3.73
2022-08-07T17:42:03.475Z,3.40
2022-08-07T17:44:45.254Z,3.40
2022-08-07T17:47:43.328Z,3.60
2022-08-07T17:50:20.948Z,3.97
2022-08-07T17:53:58.261Z,4.03
2022-08-07T17:56:06.640Z,3.97
2022-08-07T17:58:56.792Z,4.20
2022-08-07T18:01:48.543Z,3.40
2022-08-07T18:04:34.568Z,3.37
2022-08-07T18:07:20.776Z,3.93
2022-08-07T18:10:06.503Z,3.53
2022-08-07T18:13:09.914Z,3.80
2022-08-07T18:15:55.800Z,3.50
2022-08-07T18:18:47.500Z,3.60
2022-08-07T18:21:53.547Z,3.43
2022-08-07T18:24:28.419Z,3.30
2022-08-07T18:27:38.828Z,3.73
2022-08-07T18:30:31.544Z,3.30
2022-08-07T18:33:24.881Z,3.63
2022-08-07T18:36:33.036Z,3.30
2022-08-07T18:40:08.819Z,3.13
2022-08-07T18:42:34.936Z,3.40
2022-08-07T18:45:42.762Z,3.17
2022-08-07T18:48:08.908Z,3.30
2022-08-07T18:50:47.544Z,3.13
2022-08-07T18:53:36.502Z,3.33
2022-08-07T18:56:31.881Z,3.40
2022-08-07T18:59:47.135Z,3.40
2022-08-07T19:02:36.352Z,3.70
2022-08-07T19:05:22.783Z,3.30
2022-08-07T19:07:57.492Z,3.20
2022-08-07T19:10:31.581Z,3.07
2022-08-07T19:13:10.277Z,3.80
2022-08-07T19:16:05.300Z,3.27
2022-08-07T19:18:49.408Z,3.53
2022-08-07T19:21:48.065Z,3.23
2022-08-07T19:24:48.768Z,3.47
2022-08-07T19:28:29.492Z,3.27
2022-08-07T19:31:03.754Z,3.40
2022-08-07T19:33:10.246Z,3.20
2022-08-07T19:35:44.133Z,3.20
2022-08-07T19:38:17.054Z,3.23
2022-08-07T19:40:50.437Z,3.17
2022-08-07T19:43:44.943Z,3.23
2022-08-07T19:46:12.397Z,3.50
2022-08-07T19:48:53.545Z,3.87
2022-08-07T19:51:24.260Z,3.37
2022-08-07T19:54:32.246Z,3.40
2022-08-07T19:58:00.427Z,3.70
2022-08-07T19:59:48.548Z,3.50
2022-08-07T20:02:23.383Z,3.70
2022-08-07T20:04:56.120Z,3.20
2022-08-07T20:07:46.554Z,3.37
2022-08-07T20:10:35.950Z,3.60
2022-08-07T20:13:15.860Z,3.63
2022-08-07T20:15:52.195Z,3.57
2022-08-07T20:18:20.605Z,3.87
2022-08-07T20:21:01.122Z,4.00
2022-08-07T20:23:43.153Z,3.83
2022-08-07T20:26:20.547Z,3.60
2022-08-07T20:28:59.345Z,3.40
2022-08-07T20:31:26.322Z,3.90
2022-08-07T20:33:56.621Z,3.70
2022-08-07T20:36:26.182Z,3.50
2022-08-07T20:39:00.515Z,4.20
2022-08-07T20:41:34.109Z,3.10
2022-08-07T20:44:05.262Z,3.97
2022-08-07T20:46:43.799Z,3.57
2022-08-07T20:49:59.424Z,3.03
2022-08-07T20:51:59.265Z,3.33
2022-08-07T20:54:29.281Z,3.77
2022-08-07T20:57:00.650Z,3.47
2022-08-07T21:00:08.179Z,4.30
2022-08-07T21:02:39.066Z,3.93
2022-08-07T21:05:16.177Z,3.90
2022-08-07T21:07:49.747Z,4.03
2022-08-07T21:10:29.497Z,4.43
2022-08-07T21:12:59.761Z,3.73
2022-08-07T21:15:58.004Z,3.90
2022-08-07T21:18:28.154Z,4.20
2022-08-07T21:20:57.096Z,3.97
2022-08-07T21:23:49.474Z,3.80
2022-08-07T21:26:42.938Z,3.90
2022-08-07T21:29:22.983Z,4.50
2022-08-07T21:32:47.010Z,4.87
2022-08-07T21:36:04.023Z,4.20
2022-08-07T21:38:17.057Z,4.30
2022-08-07T21:41:10.832Z,4.63
2022-08-07T21:43:55.907Z,4.53
2022-08-07T21:46:45.335Z,4.13
2022-08-07T21:49:17.728Z,4.50
2022-08-07T21:52:01.044Z,4.20
2022-08-07T21:54:33.658Z,4.50
2022-08-07T21:57:15.907Z,4.60
2022-08-07T22:00:23.017Z,4.73
2022-08-07T22:03:16.582Z,4.33
2022-08-07T22:05:50.041Z,4.83
2022-08-07T22:08:21.003Z,4.40
2022-08-07T22:10:51.408Z,4.97
2022-08-07T22:13:24.522Z,5.47
2022-08-07T22:16:42.410Z,5.67
2022-08-07T22:19:30.025Z,4.93
2022-08-07T22:22:21.062Z,4.87
2022-08-07T22:24:54.833Z,5.47
2022-08-07T22:27:34.135Z,5.30
2022-08-07T22:30:18.963Z,5.53
2022-08-07T22:32:45.331Z,5.63
2022-08-07T22:35:12.339Z,5.60
2022-08-07T22:38:04.151Z,5.93
2022-08-07T22:40:38.413Z,5.83
2022-08-07T22:43:34.215Z,5.30
2022-08-07T22:46:47.091Z,5.50
2022-08-07T22:49:42.801Z,5.57
2022-08-07T22:52:37.306Z,6.27
2022-08-07T22:55:39.035Z,5.63
2022-08-07T22:58:42.131Z,5.67
2022-08-07T23:01:22.473Z,5.50
2022-08-07T23:04:17.059Z,5.70
2022-08-07T23:07:03.569Z,6.30
2022-08-07T23:10:37.870Z,5.93
2022-08-07T23:13:29.538Z,6.60
2022-08-07T23:16:48.587Z,6.00
2022-08-07T23:19:57.991Z,5.70
2022-08-07T23:22:39.894Z,5.50
2022-08-07T23:25:48.411Z,6.13
2022-08-07T23:28:54.669Z,6.03
2022-08-07T23:34:23.842Z,6.27
2022-08-07T23:35:04.514Z,6.13
2022-08-07T23:38:03.945Z,6.53
2022-08-07T23:40:34.733Z,6.30
2022-08-07T23:43:20.747Z,6.33
2022-08-07T23:46:10.589Z,6.37
2022-08-07T23:48:52.256Z,5.63
2022-08-07T23:53:00.711Z,6.23
2022-08-07T23:54:20.020Z,5.73
2022-08-07T23:57:24.508Z,7.10
